createdAt,value
2022-09-10T00:02:07.151Z,100184.97
2022-09-10T00:04:33.927Z,100181.31
2022-09-10T00:07:00.877Z,100187.81
2022-09-10T00:09:29.159Z,100187.34
2022-09-10T00:11:56.656Z,100188.72
2022-09-10T00:14:24.033Z,100186.88
2022-09-10T00:16:51.121Z,100192.22
2022-09-10T00:19:18.213Z,100182.94
2022-09-10T00:21:45.222Z,100196.69
2022-09-10T00:24:11.948Z,100190.31
2022-09-10T00:26:39.482Z,100192.25
2022-09-10T00:29:08.828Z,100193.72
2022-09-10T00:31:36.144Z,100194.53
2022-09-10T00:34:03.830Z,100192.31
2022-09-10T00:36:35.998Z,100190.50
2022-09-10T00:39:07.596Z,100188.50
2022-09-10T00:41:36.744Z,100191.50
2022-09-10T00:44:04.855Z,100184.59
2022-09-10T00:46:45.752Z,100186.69
2022-09-10T00:49:22.476Z,100183.84
2022-09-10T00:51:52.618Z,100193.53
2022-09-10T00:54:22.092Z,100186.81
2022-09-10T00:56:49.773Z,100196.50
2022-09-10T00:59:18.887Z,100191.19
2022-09-10T01:01:46.238Z,100185.84
2022-09-10T01:04:13.007Z,100188.53
2022-09-10T01:06:40.955Z,100190.41
2022-09-10T01:09:08.973Z,100194.16
2022-09-10T01:11:38.612Z,100195.88
2022-09-10T01:14:14.302Z,100202.53
2022-09-10T01:16:51.531Z,100197.38
2022-09-10T01:20:06.961Z,100196.56
2022-09-10T01:22:59.925Z,100202.97
2022-09-10T01:25:51.172Z,100197.59
2022-09-10T01:28:43.845Z,100204.41
2022-09-10T01:31:52.187Z,100205.78
2022-09-10T01:34:27.119Z,100203.22
2022-09-10T01:36:59.372Z,100209.75
2022-09-10T01:39:27.432Z,100208.69
2022-09-10T01:41:55.592Z,100210.19
2022-09-10T01:44:59.937Z,100208.19
2022-09-10T01:48:06.280Z,100203.13
2022-09-10T01:50:58.124Z,100202.31
2022-09-10T01:53:37.044Z,100200.88
2022-09-10T01:56:26.760Z,100191.53
2022-09-10T01:59:03.756Z,100199.50
2022-09-10T02:01:49.305Z,100203.53
2022-09-10T02:04:17.874Z,100204.41
2022-09-10T02:06:47.905Z,100202.69
2022-09-10T02:09:16.683Z,100201.09
2022-09-10T02:11:47.334Z,100209.06
2022-09-10T02:14:22.696Z,100198.78
2022-09-10T02:17:09.630Z,100194.88
2022-09-10T02:19:36.421Z,100198.22
2022-09-10T02:22:04.706Z,100195.81
2022-09-10T02:24:31.336Z,100203.72
2022-09-10T02:26:58.786Z,100198.56
2022-09-10T02:29:25.535Z,100196.59
2022-09-10T02:31:52.232Z,100201.28
2022-09-10T02:34:20.341Z,100202.97
2022-09-10T02:36:49.500Z,100204.75
2022-09-10T02:39:16.313Z,100205.34
2022-09-10T02:41:44.731Z,100205.88
2022-09-10T02:44:11.467Z,100210.41
2022-09-10T02:46:38.270Z,100215.34
2022-09-10T02:49:05.110Z,100211.94
2022-09-10T02:51:37.075Z,100215.81
2022-09-10T02:54:04.452Z,100214.81
2022-09-10T02:56:31.251Z,100212.63
2022-09-10T02:58:57.860Z,100210.31
2022-09-10T03:01:26.463Z,100203.97
2022-09-10T03:03:59.092Z,100208.78
2022-09-10T03:06:27.228Z,100216.19
2022-09-10T03:08:57.714Z,100217.47
2022-09-10T03:11:27.617Z,100216.69
2022-09-10T03:13:55.572Z,100213.19
2022-09-10T03:16:24.272Z,100220.31
2022-09-10T03:18:52.316Z,100218.72
2022-09-10T03:21:21.928Z,100215.09
2022-09-10T03:23:50.821Z,100213.38
2022-09-10T03:26:25.561Z,100209.50
2022-09-10T03:28:53.858Z,100211.22
2022-09-10T03:31:23.026Z,100218.97
2022-09-10T03:33:51.189Z,100223.22
2022-09-10T03:36:18.340Z,100219.09
2022-09-10T03:38:47.404Z,100218.41
2022-09-10T03:41:14.460Z,100215.78
2022-09-10T03:43:41.332Z,100217.44
2022-09-10T03:46:12.048Z,100220.06
2022-09-10T03:48:43.472Z,100220.31
2022-09-10T03:51:10.929Z,100220.00
2022-09-10T03:53:38.657Z,100228.50
2022-09-10T03:56:06.799Z,100227.31
2022-09-10T03:58:35.882Z,100222.84
2022-09-10T04:01:04.274Z,100214.28
2022-09-10T04:03:34.191Z,100216.03
2022-09-10T04:06:00.877Z,100221.84
2022-09-10T04:08:27.573Z,100220.00
2022-09-10T04:10:57.082Z,100223.00
2022-09-10T04:13:24.752Z,100224.41
2022-09-10T04:15:53.307Z,100224.81
2022-09-10T04:18:21.085Z,100222.84
2022-09-10T04:20:50.643Z,100223.19
2022-09-10T04:23:17.272Z,100220.75
2022-09-10T04:25:46.579Z,100226.81
2022-09-10T04:28:13.583Z,100225.88
2022-09-10T04:30:40.335Z,100216.41
2022-09-10T04:33:07.865Z,100221.47
2022-09-10T04:35:34.855Z,100225.78
2022-09-10T04:38:04.223Z,100226.53
2022-09-10T04:40:31.423Z,100218.59
2022-09-10T04:42:58.170Z,100223.72
2022-09-10T04:45:25.716Z,100209.50
2022-09-10T04:47:54.300Z,100222.19
2022-09-10T04:50:22.040Z,100209.84
2022-09-10T04:53:12.208Z,100212.16
2022-09-10T04:55:42.937Z,100217.97
2022-09-10T04:58:10.398Z,100215.31
2022-09-10T05:00:39.499Z,100212.16
2022-09-10T05:03:07.768Z,100215.16
2022-09-10T05:05:35.229Z,100210.47
2022-09-10T05:08:05.811Z,100217.78
2022-09-10T05:10:33.259Z,100211.69
2022-09-10T05:12:59.897Z,100219.06
2022-09-10T05:15:26.840Z,100216.75
2022-09-10T05:17:53.937Z,100217.38
2022-09-10T05:20:20.644Z,100217.59
2022-09-10T05:22:50.789Z,100214.66
2022-09-10T05:25:17.763Z,100217.50
2022-09-10T05:27:44.413Z,100206.88
2022-09-10T05:30:15.684Z,100209.81
2022-09-10T05:32:42.441Z,100219.25
2022-09-10T05:35:09.776Z,100217.53
2022-09-10T05:37:39.992Z,100224.66
2022-09-10T05:40:09.237Z,100226.16
2022-09-10T05:42:36.002Z,100224.53
2022-09-10T05:45:03.332Z,100226.47
2022-09-10T05:47:31.125Z,100226.44
2022-09-10T05:49:59.734Z,100230.78
2022-09-10T05:52:26.765Z,100229.34
2022-09-10T05:54:56.828Z,100233.53
2022-09-10T05:57:23.804Z,100240.69
2022-09-10T05:59:50.881Z,100242.16
2022-09-10T06:02:23.350Z,100239.34
2022-09-10T06:04:52.312Z,100242.16
2022-09-10T06:07:19.801Z,100235.91
2022-09-10T06:09:46.460Z,100248.53
2022-09-10T06:12:34.748Z,100248.50
2022-09-10T06:15:03.706Z,100247.59
2022-09-10T06:17:30.517Z,100247.03
2022-09-10T06:19:58.026Z,100254.53
2022-09-10T06:22:24.674Z,100259.44
2022-09-10T06:24:53.760Z,100256.66
2022-09-10T06:27:23.315Z,100257.94
2022-09-10T06:29:51.336Z,100261.50
2022-09-10T06:32:18.781Z,100263.69
2022-09-10T06:34:46.626Z,100265.09
2022-09-10T06:37:13.314Z,100265.75
2022-09-10T06:39:40.854Z,100270.88
2022-09-10T06:42:07.792Z,100267.13
2022-09-10T06:44:54.120Z,100270.75
2022-09-10T06:50:20.859Z,100269.88
2022-09-10T06:52:49.464Z,100276.38
2022-09-10T06:55:19.143Z,100278.78
2022-09-10T06:57:47.079Z,100278.00
2022-09-10T07:00:16.219Z,100277.59
2022-09-10T07:02:45.204Z,100280.59
2022-09-10T07:05:12.313Z,100279.72
2022-09-10T07:07:41.777Z,100281.97
2022-09-10T07:10:08.890Z,100284.72
2022-09-10T07:12:36.072Z,100281.91
2022-09-10T07:15:02.729Z,100291.13
2022-09-10T07:17:35.877Z,100291.13
2022-09-10T07:20:03.509Z,100288.44
2022-09-10T07:22:39.568Z,100290.69
2022-09-10T07:25:10.166Z,100285.34
2022-09-10T07:27:56.099Z,100292.13
2022-09-10T07:30:24.329Z,100298.50
2022-09-10T07:32:52.002Z,100295.31
2022-09-10T07:35:25.471Z,100308.47
2022-09-10T07:37:52.597Z,100300.63
2022-09-10T07:40:20.586Z,100294.66
2022-09-10T07:42:47.283Z,100298.91
2022-09-10T07:45:16.157Z,100300.44
2022-09-10T07:47:46.518Z,100304.97
2022-09-10T07:50:13.197Z,100312.38
2022-09-10T07:52:40.906Z,100311.00
2022-09-10T07:55:08.472Z,100310.09
2022-09-10T07:57:37.938Z,100306.00
2022-09-10T08:00:15.003Z,100314.19
2022-09-10T08:02:51.743Z,100318.00
2022-09-10T08:05:21.531Z,100315.13
2022-09-10T08:07:53.407Z,100322.88
2022-09-10T08:10:20.862Z,100328.44
2022-09-10T08:12:49.772Z,100321.16
2022-09-10T08:15:16.414Z,100327.94
2022-09-10T08:17:43.988Z,100330.41
2022-09-10T08:20:10.944Z,100333.56
2022-09-10T08:22:41.905Z,100333.06
2022-09-10T08:25:08.731Z,100332.19
2022-09-10T08:27:37.269Z,100333.41
2022-09-10T08:30:06.688Z,100334.94
2022-09-10T08:32:35.182Z,100337.09
2022-09-10T08:35:04.921Z,100338.41
2022-09-10T08:37:33.451Z,100336.97
2022-09-10T08:40:00.319Z,100337.94
2022-09-10T08:42:37.027Z,100344.75
2022-09-10T08:45:10.614Z,100344.97
2022-09-10T08:48:13.935Z,100341.16
2022-09-10T08:50:56.861Z,100338.78
2022-09-10T08:54:00.811Z,100353.63
2022-09-10T08:56:28.062Z,100352.03
2022-09-10T08:58:58.122Z,100350.72
2022-09-10T09:01:35.842Z,100336.19
2022-09-10T09:04:09.676Z,100345.94
2022-09-10T09:06:44.303Z,100343.16
2022-09-10T09:09:15.701Z,100342.63
2022-09-10T09:12:05.002Z,100338.78
2022-09-10T09:14:45.235Z,100332.53
2022-09-10T09:17:44.514Z,100339.88
2022-09-10T09:20:24.644Z,100342.22
2022-09-10T09:23:03.563Z,100343.16
2022-09-10T09:25:47.489Z,100332.75
2022-09-10T09:28:23.912Z,100332.81
2022-09-10T09:30:55.629Z,100339.97
2022-09-10T09:33:25.077Z,100343.13
2022-09-10T09:36:00.700Z,100338.88
2022-09-10T09:38:37.640Z,100336.16
2022-09-10T09:41:31.580Z,100340.81
2022-09-10T09:44:06.927Z,100328.97
2022-09-10T09:46:34.456Z,100326.91
2022-09-10T09:49:04.464Z,100340.13
2022-09-10T09:51:35.860Z,100336.03
2022-09-10T09:57:02.991Z,100326.50
2022-09-10T09:59:34.334Z,100326.41
2022-09-10T10:02:19.860Z,100323.66
2022-09-10T10:05:07.171Z,100319.59
2022-09-10T10:07:36.375Z,100324.69
2022-09-10T10:10:06.838Z,100318.53
2022-09-10T10:12:34.244Z,100309.66
2022-09-10T10:15:02.740Z,100316.44
2022-09-10T10:17:39.484Z,100308.34
2022-09-10T10:20:08.000Z,100308.78
2022-09-10T10:22:35.646Z,100294.44
2022-09-10T10:25:05.059Z,100303.78
2022-09-10T10:27:32.949Z,100304.44
2022-09-10T10:30:07.346Z,100296.38
2022-09-10T10:32:56.377Z,100291.34
2022-09-10T10:36:00.706Z,100287.84
2022-09-10T10:38:59.083Z,100283.69
2022-09-10T10:41:45.862Z,100287.59
2022-09-10T10:44:15.514Z,100287.47
2022-09-10T10:47:23.567Z,100286.72
2022-09-10T10:50:21.407Z,100285.78
2022-09-10T10:53:12.585Z,100288.63
2022-09-10T10:55:43.769Z,100284.34
2022-09-10T10:58:13.354Z,100285.06
2022-09-10T11:01:06.559Z,100287.13
2022-09-10T11:04:01.115Z,100284.09
2022-09-10T11:06:41.936Z,100280.31
2022-09-10T11:09:19.208Z,100282.25
2022-09-10T11:12:01.835Z,100293.25
2022-09-10T11:14:37.447Z,100284.59
2022-09-10T11:17:13.124Z,100290.91
2022-09-10T11:19:53.290Z,100288.13
2022-09-10T11:22:56.776Z,100272.88
2022-09-10T11:25:31.910Z,100270.84
2022-09-10T11:28:11.397Z,100271.78
2022-09-10T11:30:41.123Z,100277.06
2022-09-10T11:33:20.034Z,100278.44
2022-09-10T11:36:03.714Z,100271.09
2022-09-10T11:38:49.262Z,100263.91
2022-09-10T11:41:23.736Z,100266.69
2022-09-10T11:44:03.218Z,100268.66
2022-09-10T11:46:44.209Z,100269.47
2022-09-10T11:49:10.778Z,100254.34
2022-09-10T11:51:38.679Z,100255.41
2022-09-10T11:54:10.789Z,100258.31
2022-09-10T11:56:52.896Z,100253.53
2022-09-10T12:00:01.578Z,100254.19
2022-09-10T12:03:21.790Z,100254.63
2022-09-10T12:05:51.075Z,100253.00
2022-09-10T12:08:36.181Z,100250.63
2022-09-10T12:11:36.329Z,100247.72
2022-09-10T12:14:16.538Z,100245.72
2022-09-10T12:16:46.600Z,100241.50
2022-09-10T12:19:38.875Z,100242.44
2022-09-10T12:22:21.979Z,100246.56
2022-09-10T12:25:00.668Z,100246.63
2022-09-10T12:27:45.628Z,100244.50
2022-09-10T12:30:38.343Z,100242.53
2022-09-10T12:33:17.197Z,100244.44
2022-09-10T12:35:47.100Z,100246.44
2022-09-10T12:38:44.789Z,100243.78
2022-09-10T12:41:23.355Z,100243.97
2022-09-10T12:43:49.943Z,100237.88
2022-09-10T12:46:19.881Z,100234.66
2022-09-10T12:48:51.004Z,100239.66
2022-09-10T12:51:20.908Z,100232.56
2022-09-10T12:53:56.651Z,100234.25
2022-09-10T12:56:44.732Z,100235.22
2022-09-10T12:59:22.949Z,100237.31
2022-09-10T13:01:52.027Z,100240.28
2022-09-10T13:04:29.977Z,100229.56
2022-09-10T13:07:03.284Z,100230.81
2022-09-10T13:09:33.670Z,100231.69
2022-09-10T13:12:05.419Z,100230.81
2022-09-10T13:14:38.269Z,100231.34
2022-09-10T13:17:05.922Z,100221.97
2022-09-10T13:19:32.448Z,100227.28
2022-09-10T13:21:59.273Z,100228.75
2022-09-10T13:25:02.861Z,100232.06
2022-09-10T13:27:39.417Z,100228.91
2022-09-10T13:30:20.932Z,100233.31
2022-09-10T13:32:55.361Z,100237.00
2022-09-10T13:35:51.853Z,100223.34
2022-09-10T13:38:59.695Z,100236.91
2022-09-10T13:41:54.440Z,100239.47
2022-09-10T13:44:45.956Z,100232.41
2022-09-10T13:47:26.644Z,100238.69
2022-09-10T13:49:58.435Z,100232.00
2022-09-10T13:52:30.983Z,100226.41
2022-09-10T13:54:59.539Z,100242.50
2022-09-10T13:57:43.631Z,100233.09
2022-09-10T14:00:13.552Z,100227.88
2022-09-10T14:03:00.748Z,100235.09
2022-09-10T14:05:30.204Z,100241.00
2022-09-10T14:08:00.451Z,100233.91
2022-09-10T14:10:27.468Z,100232.53
2022-09-10T14:12:56.170Z,100233.50
2022-09-10T14:15:37.616Z,100235.59
2022-09-10T14:18:04.673Z,100245.06
2022-09-10T14:20:34.276Z,100238.06
2022-09-10T14:23:04.945Z,100244.22
2022-09-10T14:25:42.612Z,100235.59
2022-09-10T14:28:12.190Z,100238.19
2022-09-10T14:30:38.887Z,100237.84
2022-09-10T14:33:34.363Z,100236.00
2022-09-10T14:36:37.876Z,100240.97
2022-09-10T14:39:19.943Z,100239.31
2022-09-10T14:41:47.414Z,100240.34
2022-09-10T14:44:14.224Z,100233.13
2022-09-10T14:46:58.528Z,100241.56
2022-09-10T14:49:31.407Z,100237.41
2022-09-10T14:51:58.855Z,100235.53
2022-09-10T14:54:29.845Z,100237.41
2022-09-10T14:56:58.136Z,100241.97
2022-09-10T14:59:31.030Z,100246.78
2022-09-10T15:02:00.953Z,100234.22
2022-09-10T15:04:30.092Z,100240.34
2022-09-10T15:06:59.470Z,100235.28
2022-09-10T15:09:27.793Z,100239.50
2022-09-10T15:11:54.765Z,100238.25
2022-09-10T15:14:22.336Z,100228.66
2022-09-10T15:16:54.147Z,100232.13
2022-09-10T15:19:22.071Z,100235.63
2022-09-10T15:21:49.617Z,100243.69
2022-09-10T15:24:19.409Z,100239.69
2022-09-10T15:26:46.987Z,100235.38
2022-09-10T15:29:14.410Z,100237.91
2022-09-10T15:31:41.760Z,100251.53
2022-09-10T15:34:09.700Z,100242.22
2022-09-10T15:36:38.584Z,100236.72
2022-09-10T15:39:06.996Z,100243.00
2022-09-10T15:41:41.634Z,100245.81
2022-09-10T15:44:08.281Z,100246.16
2022-09-10T15:46:35.596Z,100246.47
2022-09-10T15:49:04.314Z,100242.28
2022-09-10T15:51:31.120Z,100247.59
2022-09-10T15:53:59.861Z,100246.41
2022-09-10T15:56:30.649Z,100244.75
2022-09-10T15:58:58.144Z,100239.31
2022-09-10T16:01:28.084Z,100243.78
2022-09-10T16:04:02.858Z,100247.63
2022-09-10T16:06:33.091Z,100251.16
2022-09-10T16:09:02.377Z,100244.06
2022-09-10T16:11:34.770Z,100250.19
2022-09-10T16:14:04.793Z,100238.28
2022-09-10T16:16:32.026Z,100239.28
2022-09-10T16:18:58.531Z,100243.97
2022-09-10T16:21:28.730Z,100243.31
2022-09-10T16:23:57.132Z,100245.34
2022-09-10T16:26:35.627Z,100250.31
2022-09-10T16:29:06.376Z,100255.94
2022-09-10T16:31:39.592Z,100260.25
2022-09-10T16:34:08.778Z,100265.03
2022-09-10T16:36:37.113Z,100265.97
2022-09-10T16:39:11.812Z,100268.34
2022-09-10T16:41:43.840Z,100273.00
2022-09-10T16:44:11.983Z,100269.72
2022-09-10T16:46:39.369Z,100272.78
2022-09-10T16:49:08.543Z,100283.38
2022-09-10T16:51:35.665Z,100277.41
2022-09-10T16:54:03.048Z,100276.44
2022-09-10T16:56:34.027Z,100279.69
2022-09-10T16:59:01.547Z,100286.41
2022-09-10T17:01:28.193Z,100282.22
2022-09-10T17:03:54.928Z,100289.41
2022-09-10T17:06:26.515Z,100287.97
2022-09-10T17:08:54.585Z,100287.97
2022-09-10T17:11:22.854Z,100278.47
2022-09-10T17:13:51.016Z,100281.31
2022-09-10T17:16:20.843Z,100284.31
2022-09-10T17:18:54.092Z,100289.97
2022-09-10T17:21:20.700Z,100294.22
2022-09-10T17:23:47.356Z,100299.44
2022-09-10T17:26:14.147Z,100289.09
2022-09-10T17:28:40.976Z,100295.63
2022-09-10T17:31:07.695Z,100294.63
2022-09-10T17:33:34.480Z,100289.97
2022-09-10T17:36:03.934Z,100291.09
2022-09-10T17:38:33.219Z,100296.16
2022-09-10T17:41:03.198Z,100302.28
2022-09-10T17:43:35.428Z,100306.41
2022-09-10T17:46:06.678Z,100303.53
2022-09-10T17:48:35.827Z,100304.97
2022-09-10T17:51:02.562Z,100306.88
2022-09-10T17:53:29.244Z,100301.66
2022-09-10T17:56:01.740Z,100312.84
2022-09-10T17:58:28.373Z,100308.03
2022-09-10T18:00:58.424Z,100315.97
2022-09-10T18:03:25.129Z,100318.75
2022-09-10T18:05:51.919Z,100322.75
2022-09-10T18:08:19.239Z,100317.66
2022-09-10T18:10:46.279Z,100322.97
2022-09-10T18:13:13.352Z,100325.16
2022-09-10T18:15:46.487Z,100323.56
2022-09-10T18:18:13.245Z,100333.41
2022-09-10T18:20:39.792Z,100333.56
2022-09-10T18:23:07.165Z,100332.00
2022-09-10T18:25:33.905Z,100336.31
2022-09-10T18:28:03.465Z,100337.53
2022-09-10T18:30:30.182Z,100340.75
2022-09-10T18:32:56.785Z,100345.06
2022-09-10T18:35:23.769Z,100342.75
2022-09-10T18:37:51.819Z,100352.38
2022-09-10T18:40:19.642Z,100350.44
2022-09-10T18:42:47.854Z,100356.50
2022-09-10T18:45:14.819Z,100355.69
2022-09-10T18:47:45.182Z,100360.56
2022-09-10T18:50:13.247Z,100367.09
2022-09-10T18:52:40.042Z,100369.00
2022-09-10T18:55:07.149Z,100366.63
2022-09-10T18:57:33.742Z,100372.53
2022-09-10T19:00:00.614Z,100380.22
2022-09-10T19:02:27.340Z,100388.13
2022-09-10T19:05:10.776Z,100392.88
2022-09-10T19:07:38.475Z,100395.13
2022-09-10T19:10:07.093Z,100403.03
2022-09-10T19:12:34.210Z,100400.16
2022-09-10T19:15:00.875Z,100393.50
2022-09-10T19:17:27.524Z,100384.97
2022-09-10T19:19:54.097Z,100388.00
2022-09-10T19:22:20.755Z,100391.38
2022-09-10T19:24:55.873Z,100396.81
2022-09-10T19:27:24.126Z,100402.06
2022-09-10T19:29:50.806Z,100391.13
2022-09-10T19:32:19.796Z,100397.28
2022-09-10T19:34:49.666Z,100396.41
2022-09-10T19:37:17.154Z,100401.59
2022-09-10T19:39:44.604Z,100408.22
2022-09-10T19:42:12.626Z,100408.69
2022-09-10T19:44:39.337Z,100410.34
2022-09-10T19:47:06.015Z,100408.81
2022-09-10T19:49:34.184Z,100412.31
2022-09-10T19:52:01.047Z,100415.78
2022-09-10T19:54:28.585Z,100414.28
2022-09-10T19:56:56.563Z,100412.25
2022-09-10T19:59:23.300Z,100418.78
2022-09-10T20:01:49.964Z,100414.19
2022-09-10T20:04:17.092Z,100416.47
2022-09-10T20:06:45.968Z,100418.47
2022-09-10T20:09:12.719Z,100413.16
2022-09-10T20:11:39.395Z,100411.38
2022-09-10T20:14:11.232Z,100414.94
2022-09-10T20:16:41.746Z,100413.25
2022-09-10T20:19:08.722Z,100418.13
2022-09-10T20:21:37.062Z,100419.06
2022-09-10T20:24:07.158Z,100420.06
2022-09-10T20:26:41.126Z,100414.84
2022-09-10T20:29:12.347Z,100409.31
2022-09-10T20:31:41.202Z,100416.38
2022-09-10T20:34:11.777Z,100414.94
2022-09-10T20:36:38.451Z,100418.81
2022-09-10T20:39:06.611Z,100420.28
2022-09-10T20:41:33.825Z,100421.50
2022-09-10T20:44:01.455Z,100427.00
2022-09-10T20:46:30.321Z,100414.09
2022-09-10T20:49:05.139Z,100420.75
2022-09-10T20:51:35.124Z,100417.41
2022-09-10T20:54:07.735Z,100414.13
2022-09-10T20:56:34.501Z,100413.84
2022-09-10T20:59:01.983Z,100414.06
2022-09-10T21:01:31.232Z,100410.72
2022-09-10T21:03:59.790Z,100413.16
2022-09-10T21:06:29.193Z,100414.06
2022-09-10T21:08:56.092Z,100406.38
2022-09-10T21:11:24.935Z,100413.25
2022-09-10T21:13:54.235Z,100418.34
2022-09-10T21:16:29.617Z,100420.28
2022-09-10T21:18:59.567Z,100417.69
2022-09-10T21:21:28.548Z,100414.66
2022-09-10T21:23:57.578Z,100413.69
2022-09-10T21:26:26.540Z,100417.09
2022-09-10T21:28:56.310Z,100417.75
2022-09-10T21:31:23.520Z,100424.41
2022-09-10T21:33:50.158Z,100418.34
2022-09-10T21:36:20.892Z,100422.69
2022-09-10T21:38:53.370Z,100422.25
2022-09-10T21:41:28.035Z,100419.28
2022-09-10T21:43:54.713Z,100416.13
2022-09-10T21:46:21.380Z,100419.66
2022-09-10T21:48:48.044Z,100417.22
2022-09-10T21:51:17.273Z,100415.28
2022-09-10T21:53:45.259Z,100419.78
2022-09-10T21:56:14.545Z,100411.00
2022-09-10T21:58:43.469Z,100414.66
2022-09-10T22:01:12.074Z,100418.56
2022-09-10T22:03:39.943Z,100419.28
2022-09-10T22:06:12.168Z,100423.97
2022-09-10T22:08:42.186Z,100431.59
2022-09-10T22:11:15.372Z,100434.16
2022-09-10T22:13:43.351Z,100435.38
2022-09-10T22:16:12.549Z,100439.50
2022-09-10T22:18:40.120Z,100435.81
2022-09-10T22:21:07.316Z,100445.94
2022-09-10T22:23:36.428Z,100445.19
2022-09-10T22:26:11.449Z,100437.03
2022-09-10T22:28:38.794Z,100453.84
2022-09-10T22:31:13.781Z,100450.72
2022-09-10T22:33:42.924Z,100450.44
2022-09-10T22:36:21.606Z,100458.00
2022-09-10T22:38:59.618Z,100454.59
2022-09-10T22:41:27.236Z,100451.44
2022-09-10T22:43:54.773Z,100466.03
2022-09-10T22:46:23.943Z,100462.75
2022-09-10T22:48:50.963Z,100466.00
2022-09-10T22:51:20.147Z,100467.66
2022-09-10T22:53:47.184Z,100472.06
2022-09-10T22:56:15.163Z,100469.38
2022-09-10T22:58:41.846Z,100468.91
2022-09-10T23:01:15.330Z,100466.25
2022-09-10T23:03:44.060Z,100477.91
2022-09-10T23:06:14.879Z,100473.81
2022-09-10T23:08:46.694Z,100474.13
2022-09-10T23:11:16.461Z,100481.13
2022-09-10T23:13:45.448Z,100483.28
2022-09-10T23:16:17.352Z,100491.22
2022-09-10T23:18:48.335Z,100492.31
2022-09-10T23:21:14.939Z,100485.19
2022-09-10T23:23:45.438Z,100493.53
2022-09-10T23:26:12.638Z,100493.97
2022-09-10T23:28:39.835Z,100495.56
2022-09-10T23:31:21.060Z,100495.75
2022-09-10T23:33:59.159Z,100501.63
2022-09-10T23:36:31.270Z,100512.34
2022-09-10T23:38:58.980Z,100506.25
2022-09-10T23:41:26.335Z,100507.59
2022-09-10T23:43:53.015Z,100521.41
2022-09-10T23:46:20.042Z,100515.59
2022-09-10T23:48:46.703Z,100522.22
2022-09-10T23:51:15.547Z,100521.13
2022-09-10T23:53:45.146Z,100529.41
2022-09-10T23:56:17.285Z,100538.66
2022-09-10T23:58:43.948Z,100526.56
